createdAt,value
2022-11-09T00:01:01.924Z,10.37
2022-11-09T00:03:28.336Z,10.38
2022-11-09T00:05:56.606Z,10.40
2022-11-09T00:08:23.034Z,10.44
2022-11-09T00:10:49.436Z,10.51
2022-11-09T00:13:15.943Z,10.61
2022-11-09T00:15:42.509Z,10.61
2022-11-09T00:18:08.904Z,10.54
2022-11-09T00:20:35.290Z,10.45
2022-11-09T00:23:01.683Z,10.54
2022-11-09T00:25:28.135Z,10.55
2022-11-09T00:27:54.579Z,10.63
2022-11-09T00:30:21.036Z,10.64
2022-11-09T00:32:48.035Z,10.68
2022-11-09T00:35:14.570Z,10.72
2022-11-09T00:37:41.023Z,10.67
2022-11-09T00:40:08.678Z,10.72
2022-11-09T00:42:35.062Z,10.71
2022-11-09T00:45:01.467Z,10.67
2022-11-09T00:47:27.874Z,10.68
2022-11-09T00:49:54.342Z,10.76
2022-11-09T00:52:20.804Z,10.73
2022-11-09T00:54:47.287Z,10.74
2022-11-09T00:57:14.055Z,10.80
2022-11-09T00:59:40.571Z,10.77
2022-11-09T01:02:06.984Z,10.79
2022-11-09T01:04:33.385Z,10.83
2022-11-09T01:06:59.898Z,10.96
2022-11-09T01:09:26.409Z,11.06
2022-11-09T01:11:52.876Z,10.92
2022-11-09T01:14:19.332Z,10.92
2022-11-09T01:16:45.751Z,10.89
2022-11-09T01:19:12.272Z,10.90
2022-11-09T01:21:38.734Z,10.88
2022-11-09T01:24:05.693Z,10.84
2022-11-09T01:26:32.471Z,10.87
2022-11-09T01:28:58.878Z,10.77
2022-11-09T01:31:25.635Z,10.65
2022-11-09T01:33:52.117Z,10.54
2022-11-09T01:36:21.084Z,10.32
2022-11-09T01:38:48.127Z,10.26
2022-11-09T01:41:18.447Z,10.22
2022-11-09T01:43:46.794Z,10.14
2022-11-09T01:46:30.140Z,10.20
2022-11-09T01:49:01.768Z,10.07
2022-11-09T01:51:33.860Z,10.12
2022-11-09T01:54:06.023Z,10.07
2022-11-09T01:56:33.076Z,10.07
2022-11-09T01:59:03.893Z,9.98
2022-11-09T02:01:31.828Z,9.85
2022-11-09T02:04:23.889Z,9.86
2022-11-09T02:06:50.662Z,9.87
2022-11-09T02:09:29.169Z,9.81
2022-11-09T02:11:56.309Z,9.76
2022-11-09T02:14:25.308Z,9.72
2022-11-09T02:16:51.889Z,9.67
2022-11-09T02:19:18.424Z,9.70
2022-11-09T02:21:45.123Z,9.73
2022-11-09T02:24:12.568Z,9.77
2022-11-09T02:26:45.675Z,9.66
2022-11-09T02:29:17.349Z,9.73
2022-11-09T02:31:46.242Z,9.85
2022-11-09T02:34:16.729Z,9.85
2022-11-09T02:36:45.994Z,9.72
2022-11-09T02:39:16.419Z,9.78
2022-11-09T02:41:46.641Z,9.73
2022-11-09T02:44:15.637Z,9.84
2022-11-09T02:46:42.153Z,9.92
2022-11-09T02:49:08.649Z,9.87
2022-11-09T02:51:35.071Z,9.89
2022-11-09T02:54:01.463Z,9.91
2022-11-09T02:56:27.954Z,9.88
2022-11-09T02:58:54.632Z,9.91
2022-11-09T03:01:21.114Z,9.83
2022-11-09T03:03:47.982Z,9.82
2022-11-09T03:06:14.376Z,9.76
2022-11-09T03:08:40.785Z,9.83
2022-11-09T03:11:07.432Z,9.85
2022-11-09T03:13:34.675Z,9.84
2022-11-09T03:16:06.133Z,9.87
2022-11-09T03:18:32.632Z,9.82
2022-11-09T03:21:06.428Z,9.87
2022-11-09T03:23:33.313Z,9.87
2022-11-09T03:25:59.718Z,9.88
2022-11-09T03:28:26.375Z,9.85
2022-11-09T03:30:53.120Z,9.88
2022-11-09T03:33:20.303Z,9.85
2022-11-09T03:35:46.911Z,9.85
2022-11-09T03:38:13.501Z,9.88
2022-11-09T03:40:40.289Z,9.87
2022-11-09T03:43:06.728Z,9.91
2022-11-09T03:45:33.332Z,9.89
2022-11-09T03:48:02.621Z,9.92
2022-11-09T03:50:31.883Z,9.94
2022-11-09T03:52:59.006Z,9.93
2022-11-09T03:55:25.864Z,9.96
2022-11-09T03:57:52.387Z,10.00
2022-11-09T04:00:21.544Z,10.00
2022-11-09T04:02:48.131Z,9.99
2022-11-09T04:05:15.265Z,10.03
2022-11-09T04:07:48.489Z,9.96
2022-11-09T04:10:15.178Z,10.00
2022-11-09T04:12:41.586Z,10.03
2022-11-09T04:15:08.465Z,10.03
2022-11-09T04:17:34.928Z,9.96
2022-11-09T04:20:01.994Z,10.07
2022-11-09T04:22:28.464Z,10.03
2022-11-09T04:24:54.863Z,10.09
2022-11-09T04:27:21.487Z,10.06
2022-11-09T04:29:47.900Z,10.13
2022-11-09T04:32:14.316Z,10.09
2022-11-09T04:34:41.332Z,10.07
2022-11-09T04:37:08.983Z,10.11
2022-11-09T04:39:35.371Z,10.22
2022-11-09T04:42:02.480Z,10.24
2022-11-09T04:44:31.552Z,10.34
2022-11-09T04:46:57.966Z,10.32
2022-11-09T04:49:24.365Z,10.38
2022-11-09T04:51:50.782Z,10.50
2022-11-09T04:54:17.173Z,10.47
2022-11-09T04:56:43.538Z,10.57
2022-11-09T04:59:10.036Z,10.55
2022-11-09T05:01:36.432Z,10.55
2022-11-09T05:04:02.934Z,10.63
2022-11-09T05:06:32.321Z,10.60
2022-11-09T05:09:00.767Z,10.63
2022-11-09T05:11:27.480Z,10.63
2022-11-09T05:13:53.918Z,10.60
2022-11-09T05:16:20.896Z,10.59
2022-11-09T05:18:47.569Z,10.55
2022-11-09T05:21:14.004Z,10.59
2022-11-09T05:27:21.040Z,10.59
2022-11-09T05:29:47.429Z,10.60
2022-11-09T05:32:14.170Z,10.55
2022-11-09T05:34:40.586Z,10.55
2022-11-09T05:37:06.975Z,10.56
2022-11-09T05:39:33.358Z,10.58
2022-11-09T05:41:59.797Z,10.57
2022-11-09T05:44:26.331Z,10.56
2022-11-09T05:46:52.720Z,10.49
2022-11-09T05:49:19.163Z,10.54
2022-11-09T05:51:45.618Z,10.53
2022-11-09T05:54:12.114Z,10.57
2022-11-09T05:56:38.567Z,10.59
2022-11-09T05:59:04.956Z,10.59
2022-11-09T06:01:31.377Z,10.59
2022-11-09T06:03:57.811Z,10.55
2022-11-09T06:06:24.250Z,10.67
2022-11-09T06:08:50.732Z,10.66
2022-11-09T06:11:23.651Z,10.69
2022-11-09T06:13:51.726Z,10.69
2022-11-09T06:16:18.152Z,10.74
2022-11-09T06:18:44.544Z,10.75
2022-11-09T06:21:10.970Z,10.74
2022-11-09T06:23:37.448Z,10.72
2022-11-09T06:26:09.817Z,10.74
2022-11-09T06:28:38.184Z,10.70
2022-11-09T06:31:07.006Z,10.68
2022-11-09T06:33:35.120Z,10.78
2022-11-09T06:36:02.561Z,10.76
2022-11-09T06:38:29.574Z,10.81
2022-11-09T06:40:57.817Z,10.87
2022-11-09T06:43:25.187Z,10.94
2022-11-09T06:45:52.650Z,10.93
2022-11-09T06:48:19.763Z,10.95
2022-11-09T06:50:46.634Z,11.01
2022-11-09T06:53:15.521Z,10.96
2022-11-09T06:55:48.862Z,11.03
2022-11-09T06:58:16.972Z,11.03
2022-11-09T07:00:44.555Z,11.07
2022-11-09T07:03:15.917Z,11.11
2022-11-09T07:05:42.683Z,11.08
2022-11-09T07:08:09.851Z,11.08
2022-11-09T07:10:36.734Z,11.10
2022-11-09T07:13:03.789Z,11.13
2022-11-09T07:15:30.306Z,11.14
2022-11-09T07:18:00.754Z,11.11
2022-11-09T07:20:28.270Z,11.16
2022-11-09T07:22:55.401Z,11.19
2022-11-09T07:25:22.492Z,11.15
2022-11-09T07:27:49.164Z,11.14
2022-11-09T07:30:15.619Z,11.17
2022-11-09T07:35:29.761Z,11.18
2022-11-09T07:38:01.164Z,11.16
2022-11-09T07:40:27.575Z,11.20
2022-11-09T07:42:58.268Z,11.13
2022-11-09T07:45:24.713Z,11.15
2022-11-09T07:47:55.925Z,11.13
2022-11-09T07:50:22.367Z,11.17
2022-11-09T07:52:48.766Z,11.18
2022-11-09T07:55:15.324Z,11.18
2022-11-09T07:57:44.220Z,11.22
2022-11-09T08:00:11.904Z,11.19
2022-11-09T08:02:38.389Z,11.06
2022-11-09T08:05:05.452Z,11.08
2022-11-09T08:07:33.532Z,11.19
2022-11-09T08:10:00.140Z,11.21
2022-11-09T08:12:26.576Z,11.26
2022-11-09T08:14:53.038Z,11.32
2022-11-09T08:17:19.434Z,11.33
2022-11-09T08:19:45.851Z,11.35
2022-11-09T08:22:12.228Z,11.40
2022-11-09T08:24:38.943Z,11.41
2022-11-09T08:27:05.455Z,11.43
2022-11-09T08:29:31.893Z,11.46
2022-11-09T08:31:58.385Z,11.47
2022-11-09T08:34:24.789Z,11.47
2022-11-09T08:36:51.172Z,11.49
2022-11-09T08:39:17.575Z,11.48
2022-11-09T08:41:44.039Z,11.50
2022-11-09T08:44:10.455Z,11.52
2022-11-09T08:46:41.086Z,11.56
2022-11-09T08:49:07.948Z,11.60
2022-11-09T08:51:34.330Z,11.62
2022-11-09T08:54:00.768Z,11.63
2022-11-09T08:56:27.231Z,11.70
2022-11-09T08:58:53.684Z,11.75
2022-11-09T09:01:20.193Z,11.76
2022-11-09T09:03:46.889Z,11.75
2022-11-09T09:06:13.299Z,11.73
2022-11-09T09:08:39.730Z,11.67
2022-11-09T09:11:06.359Z,11.82
2022-11-09T09:13:33.363Z,11.83
2022-11-09T09:16:13.034Z,11.87
2022-11-09T09:18:39.572Z,11.84
2022-11-09T09:21:10.596Z,11.92
2022-11-09T09:23:37.353Z,11.91
2022-11-09T09:26:04.222Z,11.94
2022-11-09T09:28:30.783Z,12.03
2022-11-09T09:30:59.749Z,12.08
2022-11-09T09:33:27.121Z,12.16
2022-11-09T09:35:57.462Z,12.18
2022-11-09T09:38:24.816Z,12.21
2022-11-09T09:40:57.477Z,12.22
2022-11-09T09:43:29.973Z,12.24
2022-11-09T09:45:59.198Z,12.22
2022-11-09T09:48:31.601Z,12.33
2022-11-09T09:51:09.872Z,12.34
2022-11-09T09:53:47.026Z,12.36
2022-11-09T09:56:19.518Z,12.46
2022-11-09T09:58:51.791Z,12.54
2022-11-09T10:01:20.836Z,12.56
2022-11-09T10:03:48.593Z,12.54
2022-11-09T10:06:37.671Z,12.68
2022-11-09T10:09:37.368Z,12.70
2022-11-09T10:12:18.935Z,12.70
2022-11-09T10:15:00.404Z,12.77
2022-11-09T10:17:39.551Z,12.71
2022-11-09T10:20:24.387Z,12.76
2022-11-09T10:22:56.738Z,12.75
2022-11-09T10:25:43.952Z,12.75
2022-11-09T10:28:17.467Z,12.90
2022-11-09T10:30:44.490Z,12.90
2022-11-09T10:33:10.950Z,12.94
2022-11-09T10:35:50.409Z,12.81
2022-11-09T10:38:23.536Z,12.81
2022-11-09T10:40:55.911Z,12.82
2022-11-09T10:43:23.731Z,12.85
2022-11-09T10:46:08.147Z,12.84
2022-11-09T10:48:40.340Z,12.80
2022-11-09T10:51:32.657Z,12.82
2022-11-09T10:54:24.597Z,12.79
2022-11-09T10:57:14.123Z,12.79
2022-11-09T10:59:43.465Z,12.79
2022-11-09T11:02:28.908Z,12.89
2022-11-09T11:05:07.157Z,12.91
2022-11-09T11:07:35.448Z,12.96
2022-11-09T11:10:17.634Z,12.96
2022-11-09T11:13:17.947Z,13.03
2022-11-09T11:15:45.244Z,13.00
2022-11-09T11:18:22.253Z,12.97
2022-11-09T11:20:48.933Z,13.02
2022-11-09T11:23:21.552Z,13.10
2022-11-09T11:25:54.313Z,13.19
2022-11-09T11:28:33.653Z,13.22
2022-11-09T11:31:00.499Z,13.22
2022-11-09T11:33:26.931Z,13.28
2022-11-09T11:36:18.798Z,13.36
2022-11-09T11:39:13.030Z,13.37
2022-11-09T11:41:54.450Z,13.29
2022-11-09T11:44:36.362Z,13.28
2022-11-09T11:47:03.068Z,13.28
2022-11-09T11:49:40.863Z,13.28
2022-11-09T11:52:14.527Z,13.26
2022-11-09T11:54:47.198Z,13.22
2022-11-09T11:57:28.924Z,13.23
2022-11-09T11:59:55.300Z,13.17
2022-11-09T12:02:49.753Z,13.16
2022-11-09T12:05:22.009Z,13.17
2022-11-09T12:07:58.552Z,13.24
2022-11-09T12:10:55.198Z,13.40
2022-11-09T12:13:27.643Z,13.38
2022-11-09T12:16:14.049Z,13.31
2022-11-09T12:19:00.676Z,13.32
2022-11-09T12:21:44.088Z,13.32
2022-11-09T12:24:22.971Z,13.32
2022-11-09T12:27:04.724Z,13.31
2022-11-09T12:29:44.567Z,13.27
2022-11-09T12:32:36.177Z,13.29
2022-11-09T12:35:08.714Z,13.29
2022-11-09T12:37:41.093Z,13.24
2022-11-09T12:40:24.011Z,13.29
2022-11-09T12:43:04.434Z,13.28
2022-11-09T12:45:35.731Z,13.25
2022-11-09T12:48:11.633Z,13.24
2022-11-09T12:50:38.958Z,13.24
2022-11-09T12:53:06.306Z,13.24
2022-11-09T12:55:52.150Z,13.28
2022-11-09T12:58:31.483Z,13.26
2022-11-09T13:01:00.743Z,13.28
2022-11-09T13:03:31.020Z,13.26
2022-11-09T13:06:25.187Z,13.29
2022-11-09T13:09:07.498Z,13.36
2022-11-09T13:11:40.945Z,13.40
2022-11-09T13:14:22.532Z,13.44
2022-11-09T13:16:50.546Z,13.45
2022-11-09T13:19:35.067Z,13.45
2022-11-09T13:22:02.329Z,13.45
2022-11-09T13:24:31.939Z,13.36
2022-11-09T13:27:03.343Z,13.36
2022-11-09T13:29:50.987Z,13.41
2022-11-09T13:32:25.681Z,13.42
2022-11-09T13:34:55.003Z,13.45
2022-11-09T13:37:36.867Z,13.44
2022-11-09T13:40:30.951Z,13.49
2022-11-09T13:43:00.321Z,13.49
2022-11-09T13:45:32.032Z,13.44
2022-11-09T13:47:58.711Z,13.46
2022-11-09T13:50:31.850Z,13.46
2022-11-09T13:52:59.865Z,13.44
2022-11-09T13:55:32.409Z,13.43
2022-11-09T13:58:03.857Z,13.42
2022-11-09T14:00:30.596Z,13.42
2022-11-09T14:03:02.204Z,13.39
2022-11-09T14:05:33.248Z,13.38
2022-11-09T14:08:03.861Z,13.42
2022-11-09T14:10:45.464Z,13.43
2022-11-09T14:13:33.547Z,13.40
2022-11-09T14:16:38.535Z,13.44
2022-11-09T14:19:11.007Z,13.43
2022-11-09T14:21:44.188Z,13.31
2022-11-09T14:24:21.049Z,13.21
2022-11-09T14:27:10.207Z,13.13
2022-11-09T14:29:54.148Z,13.06
2022-11-09T14:32:25.409Z,12.97
2022-11-09T14:34:51.996Z,12.83
2022-11-09T14:37:19.215Z,12.92
2022-11-09T14:39:50.866Z,12.77
2022-11-09T14:42:21.213Z,12.69
2022-11-09T14:44:48.648Z,12.64
2022-11-09T14:47:18.456Z,12.57
2022-11-09T14:49:46.253Z,12.56
2022-11-09T14:52:18.137Z,12.49
2022-11-09T14:54:46.366Z,12.45
2022-11-09T14:57:16.115Z,12.39
2022-11-09T14:59:44.890Z,12.36
2022-11-09T15:02:15.249Z,12.37
2022-11-09T15:04:53.205Z,12.35
2022-11-09T15:07:22.814Z,12.34
2022-11-09T15:09:53.882Z,12.28
2022-11-09T15:12:21.361Z,12.15
2022-11-09T15:14:50.233Z,12.09
2022-11-09T15:17:34.727Z,12.21
2022-11-09T15:20:22.638Z,12.25
2022-11-09T15:22:54.002Z,12.11
2022-11-09T15:25:35.250Z,12.13
2022-11-09T15:28:13.622Z,12.13
2022-11-09T15:30:46.376Z,12.36
2022-11-09T15:33:24.119Z,12.10
2022-11-09T15:36:06.630Z,12.10
2022-11-09T15:38:44.746Z,12.02
2022-11-09T15:41:17.583Z,12.15
2022-11-09T15:43:44.232Z,12.08
2022-11-09T15:46:19.531Z,12.11
2022-11-09T15:48:46.582Z,12.02
2022-11-09T15:51:14.018Z,12.05
2022-11-09T15:53:40.911Z,12.04
2022-11-09T15:56:10.601Z,11.94
2022-11-09T15:58:37.077Z,11.98
2022-11-09T16:01:03.593Z,11.90
2022-11-09T16:03:30.015Z,11.94
2022-11-09T16:05:56.496Z,11.91
2022-11-09T16:08:23.323Z,11.87
2022-11-09T16:10:50.182Z,11.91
2022-11-09T16:13:16.578Z,11.89
2022-11-09T16:15:43.061Z,11.90
2022-11-09T16:18:10.547Z,11.92
2022-11-09T16:20:37.018Z,11.87
2022-11-09T16:23:03.479Z,11.89
2022-11-09T16:25:29.883Z,11.84
2022-11-09T16:27:56.351Z,11.82
2022-11-09T16:30:22.961Z,11.83
2022-11-09T16:32:49.479Z,11.75
2022-11-09T16:35:26.709Z,11.78
2022-11-09T16:37:55.093Z,11.77
2022-11-09T16:40:22.300Z,11.68
2022-11-09T16:42:49.783Z,11.73
2022-11-09T16:45:17.310Z,11.66
2022-11-09T16:47:49.147Z,11.66
2022-11-09T16:50:15.889Z,11.66
2022-11-09T16:52:42.447Z,11.74
2022-11-09T16:55:09.663Z,11.68
2022-11-09T16:57:36.993Z,11.66
2022-11-09T17:00:06.292Z,11.67
2022-11-09T17:02:33.187Z,11.67
2022-11-09T17:04:59.681Z,11.70
2022-11-09T17:07:27.083Z,11.69
2022-11-09T17:09:53.629Z,11.71
2022-11-09T17:12:20.183Z,11.47
2022-11-09T17:14:46.605Z,11.59
2022-11-09T17:17:15.941Z,11.55
2022-11-09T17:19:46.847Z,11.52
2022-11-09T17:22:14.595Z,11.56
2022-11-09T17:24:41.347Z,11.62
2022-11-09T17:27:09.644Z,11.52
2022-11-09T17:29:39.910Z,11.47
2022-11-09T17:32:09.233Z,11.54
2022-11-09T17:34:36.139Z,11.46
2022-11-09T17:37:04.584Z,11.43
2022-11-09T17:39:31.533Z,11.41
2022-11-09T17:41:58.009Z,11.39
2022-11-09T17:44:24.484Z,11.43
2022-11-09T17:46:50.996Z,11.35
2022-11-09T17:49:17.455Z,11.39
2022-11-09T17:51:43.901Z,11.41
2022-11-09T17:54:10.350Z,11.38
2022-11-09T17:56:36.794Z,11.42
2022-11-09T17:59:05.349Z,11.47
2022-11-09T18:01:36.372Z,11.45
2022-11-09T18:04:06.959Z,11.53
2022-11-09T18:06:33.942Z,11.53
2022-11-09T18:09:34.406Z,11.60
2022-11-09T18:11:47.931Z,11.58
2022-11-09T18:14:15.830Z,11.50
2022-11-09T18:16:42.605Z,11.54
2022-11-09T18:19:09.289Z,11.54
2022-11-09T18:21:35.755Z,11.50
2022-11-09T18:24:02.568Z,11.49
2022-11-09T18:26:31.318Z,11.54
2022-11-09T18:28:58.252Z,11.47
2022-11-09T18:31:24.743Z,11.50
2022-11-09T18:33:51.316Z,11.45
2022-11-09T18:36:21.050Z,11.46
2022-11-09T18:38:47.880Z,11.37
2022-11-09T18:41:17.905Z,11.37
2022-11-09T18:43:45.027Z,11.16
2022-11-09T18:46:14.415Z,11.25
2022-11-09T18:48:41.379Z,11.25
2022-11-09T18:51:08.951Z,11.18
2022-11-09T18:53:40.879Z,11.15
2022-11-09T18:56:17.236Z,11.01
2022-11-09T18:58:43.713Z,10.91
2022-11-09T19:01:10.358Z,11.03
2022-11-09T19:03:37.305Z,11.00
2022-11-09T19:06:08.582Z,10.81
2022-11-09T19:08:54.052Z,10.84
2022-11-09T19:11:20.648Z,10.80
2022-11-09T19:13:47.237Z,10.84
2022-11-09T19:16:15.294Z,10.79
2022-11-09T19:18:42.437Z,10.76
2022-11-09T19:21:27.286Z,10.78
2022-11-09T19:23:54.046Z,10.67
2022-11-09T19:26:23.997Z,10.62
2022-11-09T19:28:50.485Z,10.71
2022-11-09T19:31:19.131Z,10.65
2022-11-09T19:33:45.710Z,10.63
2022-11-09T19:38:58.914Z,10.64
2022-11-09T19:41:25.785Z,10.69
2022-11-09T19:43:54.546Z,10.69
2022-11-09T19:46:21.959Z,10.57
2022-11-09T19:48:48.751Z,10.57
2022-11-09T19:51:16.937Z,10.66
2022-11-09T19:53:52.270Z,10.71
2022-11-09T19:56:19.519Z,10.56
2022-11-09T19:58:50.805Z,10.36
2022-11-09T20:01:17.906Z,10.18
2022-11-09T20:03:44.480Z,10.24
2022-11-09T20:06:10.939Z,10.24
2022-11-09T20:08:37.696Z,10.13
2022-11-09T20:11:09.999Z,10.16
2022-11-09T20:13:40.638Z,10.21
2022-11-09T20:16:09.039Z,10.21
2022-11-09T20:18:37.418Z,10.13
2022-11-09T20:21:04.674Z,10.00
2022-11-09T20:23:31.133Z,10.02
2022-11-09T20:26:09.318Z,10.01
2022-11-09T20:28:36.386Z,9.88
2022-11-09T20:31:14.073Z,9.91
2022-11-09T20:33:40.498Z,10.00
2022-11-09T20:36:07.173Z,9.98
2022-11-09T20:38:34.180Z,10.07
2022-11-09T20:41:03.327Z,9.95
2022-11-09T20:43:30.225Z,9.99
2022-11-09T20:46:02.353Z,9.96
2022-11-09T20:51:18.410Z,10.01
2022-11-09T20:53:46.207Z,10.08
2022-11-09T20:56:14.017Z,9.96
2022-11-09T20:58:40.781Z,9.94
2022-11-09T21:01:13.945Z,9.97
2022-11-09T21:03:41.011Z,10.04
2022-11-09T21:06:08.567Z,10.05
2022-11-09T21:08:35.395Z,10.08
2022-11-09T21:11:03.600Z,10.01
2022-11-09T21:13:30.358Z,9.98
2022-11-09T21:16:05.024Z,10.02
2022-11-09T21:18:31.597Z,10.09
2022-11-09T21:21:06.272Z,10.01
2022-11-09T21:23:51.448Z,10.13
2022-11-09T21:26:36.206Z,10.21
2022-11-09T21:29:22.185Z,10.18
2022-11-09T21:31:48.609Z,10.08
2022-11-09T21:34:15.105Z,10.05
2022-11-09T21:36:43.396Z,10.12
2022-11-09T21:39:10.890Z,10.06
2022-11-09T21:41:38.120Z,10.00
2022-11-09T21:44:06.473Z,10.14
2022-11-09T21:46:32.897Z,9.99
2022-11-09T21:48:59.659Z,10.19
2022-11-09T21:51:26.124Z,10.13
2022-11-09T21:53:52.635Z,10.07
2022-11-09T21:56:19.284Z,10.11
2022-11-09T21:58:47.431Z,10.21
2022-11-09T22:01:15.820Z,10.32
2022-11-09T22:03:42.647Z,10.32
2022-11-09T22:06:09.420Z,10.29
2022-11-09T22:08:35.897Z,10.34
2022-11-09T22:11:08.206Z,10.24
2022-11-09T22:13:53.935Z,10.30
2022-11-09T22:16:21.697Z,10.32
2022-11-09T22:19:06.566Z,10.36
2022-11-09T22:21:33.142Z,10.25
2022-11-09T22:24:00.554Z,10.23
2022-11-09T22:26:29.074Z,10.22
2022-11-09T22:28:56.818Z,10.13
2022-11-09T22:31:23.521Z,10.14
2022-11-09T22:33:50.063Z,10.22
2022-11-09T22:36:18.309Z,10.20
2022-11-09T22:38:46.031Z,10.16
2022-11-09T22:41:14.538Z,10.22
2022-11-09T22:43:43.195Z,10.03
2022-11-09T22:46:14.453Z,10.09
2022-11-09T22:48:42.534Z,10.07
2022-11-09T22:51:10.910Z,9.94
2022-11-09T22:53:37.406Z,9.99
2022-11-09T22:56:04.960Z,10.08
2022-11-09T22:58:31.400Z,10.08
2022-11-09T23:01:24.430Z,10.10
2022-11-09T23:03:51.725Z,10.03
2022-11-09T23:06:21.122Z,10.14
2022-11-09T23:08:47.901Z,10.04
2022-11-09T23:11:18.076Z,10.06
2022-11-09T23:13:47.817Z,10.06
2022-11-09T23:16:14.267Z,10.12
2022-11-09T23:18:56.216Z,10.16
2022-11-09T23:21:31.400Z,10.14
2022-11-09T23:24:03.654Z,10.07
2022-11-09T23:26:31.214Z,10.18
2022-11-09T23:28:57.828Z,10.20
2022-11-09T23:31:24.966Z,10.25
2022-11-09T23:33:54.307Z,10.26
2022-11-09T23:36:25.423Z,10.31
2022-11-09T23:38:52.184Z,10.34
2022-11-09T23:41:19.103Z,10.29
2022-11-09T23:43:49.174Z,10.28
2022-11-09T23:46:17.214Z,10.23
2022-11-09T23:48:44.127Z,10.20
2022-11-09T23:51:11.074Z,10.39
2022-11-09T23:53:38.106Z,10.39
2022-11-09T23:56:07.530Z,10.47
2022-11-09T23:58:34.193Z,10.48
